sensor_id;sensor_type;location;lat;lon;timestamp;P1;durP1;ratioP1;P2;durP2;ratioP2
17790;SDS011;9019;48.132;-1.210;2023-12-20T00:01:25;13.37;;;2.80;;
17790;SDS011;9019;48.132;-1.210;2023-12-20T00:03:53;8.93;;;2.03;;
17790;SDS011;9019;48.132;-1.210;2023-12-20T00:06:21;10.33;;;3.10;;
17790;SDS011;9019;48.132;-1.210;2023-12-20T00:08:49;13.80;;;4.77;;
17790;SDS011;9019;48.132;-1.210;2023-12-20T00:11:16;10.93;;;3.53;;
17790;SDS011;9019;48.132;-1.210;2023-12-20T00:13:43;16.07;;;5.07;;
17790;SDS011;9019;48.132;-1.210;2023-12-20T00:16:11;12.60;;;2.20;;
17790;SDS011;9019;48.132;-1.210;2023-12-20T00:18:38;10.43;;;1.87;;
17790;SDS011;9019;48.132;-1.210;2023-12-20T00:21:05;10.03;;;1.77;;
17790;SDS011;9019;48.132;-1.210;2023-12-20T00:23:34;11.37;;;2.97;;
17790;SDS011;9019;48.132;-1.210;2023-12-20T00:26:01;9.27;;;2.40;;
17790;SDS011;9019;48.132;-1.210;2023-12-20T00:28:28;8.37;;;1.80;;
17790;SDS011;9019;48.132;-1.210;2023-12-20T00:30:55;11.57;;;2.00;;
17790;SDS011;9019;48.132;-1.210;2023-12-20T00:33:23;9.77;;;1.60;;
17790;SDS011;9019;48.132;-1.210;2023-12-20T00:35:50;11.77;;;1.80;;
17790;SDS011;9019;48.132;-1.210;2023-12-20T00:38:17;9.43;;;1.73;;
17790;SDS011;9019;48.132;-1.210;2023-12-20T00:40:46;10.97;;;1.80;;
17790;SDS011;9019;48.132;-1.210;2023-12-20T00:43:14;6.30;;;1.73;;
17790;SDS011;9019;48.132;-1.210;2023-12-20T00:45:42;7.83;;;1.70;;
17790;SDS011;9019;48.132;-1.210;2023-12-20T00:48:09;9.47;;;1.80;;
17790;SDS011;9019;48.132;-1.210;2023-12-20T00:50:36;11.93;;;1.60;;
17790;SDS011;9019;48.132;-1.210;2023-12-20T00:53:04;9.50;;;1.67;;
17790;SDS011;9019;48.132;-1.210;2023-12-20T00:55:31;10.03;;;1.53;;
17790;SDS011;9019;48.132;-1.210;2023-12-20T00:57:59;6.47;;;1.40;;
17790;SDS011;9019;48.132;-1.210;2023-12-20T01:00:26;11.03;;;1.63;;
17790;SDS011;9019;48.132;-1.210;2023-12-20T01:02:54;9.27;;;1.17;;
17790;SDS011;9019;48.132;-1.210;2023-12-20T01:05:21;8.33;;;1.50;;
17790;SDS011;9019;48.132;-1.210;2023-12-20T01:07:48;8.90;;;1.27;;
17790;SDS011;9019;48.132;-1.210;2023-12-20T01:10:15;10.30;;;1.30;;
17790;SDS011;9019;48.132;-1.210;2023-12-20T01:12:43;11.97;;;1.70;;
17790;SDS011;9019;48.132;-1.210;2023-12-20T01:15:13;9.60;;;1.63;;
17790;SDS011;9019;48.132;-1.210;2023-12-20T01:17:40;8.87;;;1.60;;
17790;SDS011;9019;48.132;-1.210;2023-12-20T01:20:07;8.47;;;1.40;;
17790;SDS011;9019;48.132;-1.210;2023-12-20T01:22:35;8.03;;;1.40;;
17790;SDS011;9019;48.132;-1.210;2023-12-20T01:25:02;8.03;;;1.50;;
17790;SDS011;9019;48.132;-1.210;2023-12-20T01:27:29;7.10;;;1.70;;
17790;SDS011;9019;48.132;-1.210;2023-12-20T01:29:57;5.70;;;1.23;;
17790;SDS011;9019;48.132;-1.210;2023-12-20T01:32:25;9.43;;;2.07;;
17790;SDS011;9019;48.132;-1.210;2023-12-20T01:34:52;12.13;;;1.60;;
17790;SDS011;9019;48.132;-1.210;2023-12-20T01:37:20;8.97;;;1.77;;
17790;SDS011;9019;48.132;-1.210;2023-12-20T01:39:48;9.80;;;1.77;;
17790;SDS011;9019;48.132;-1.210;2023-12-20T01:42:16;10.33;;;1.70;;
17790;SDS011;9019;48.132;-1.210;2023-12-20T01:44:43;8.47;;;1.70;;
17790;SDS011;9019;48.132;-1.210;2023-12-20T01:47:10;7.07;;;1.60;;
17790;SDS011;9019;48.132;-1.210;2023-12-20T01:49:39;6.13;;;1.40;;
17790;SDS011;9019;48.132;-1.210;2023-12-20T01:52:06;8.20;;;1.33;;
17790;SDS011;9019;48.132;-1.210;2023-12-20T01:54:34;8.83;;;1.73;;
17790;SDS011;9019;48.132;-1.210;2023-12-20T01:57:03;7.83;;;1.67;;
17790;SDS011;9019;48.132;-1.210;2023-12-20T01:59:30;7.57;;;1.60;;
17790;SDS011;9019;48.132;-1.210;2023-12-20T02:01:57;9.47;;;2.27;;
17790;SDS011;9019;48.132;-1.210;2023-12-20T02:04:25;13.83;;;2.37;;
17790;SDS011;9019;48.132;-1.210;2023-12-20T02:06:54;9.50;;;2.20;;
17790;SDS011;9019;48.132;-1.210;2023-12-20T02:09:23;11.50;;;2.70;;
17790;SDS011;9019;48.132;-1.210;2023-12-20T02:11:50;10.93;;;2.37;;
17790;SDS011;9019;48.132;-1.210;2023-12-20T02:14:17;11.37;;;2.30;;
17790;SDS011;9019;48.132;-1.210;2023-12-20T02:16:44;8.83;;;2.33;;
17790;SDS011;9019;48.132;-1.210;2023-12-20T02:19:13;10.00;;;2.47;;
17790;SDS011;9019;48.132;-1.210;2023-12-20T02:21:42;7.33;;;2.77;;
17790;SDS011;9019;48.132;-1.210;2023-12-20T02:24:09;12.27;;;2.77;;
17790;SDS011;9019;48.132;-1.210;2023-12-20T02:26:36;11.17;;;3.03;;
17790;SDS011;9019;48.132;-1.210;2023-12-20T02:29:03;13.47;;;2.80;;
17790;SDS011;9019;48.132;-1.210;2023-12-20T02:31:30;12.83;;;2.50;;
17790;SDS011;9019;48.132;-1.210;2023-12-20T02:33:58;9.10;;;1.73;;
17790;SDS011;9019;48.132;-1.210;2023-12-20T02:36:25;9.87;;;2.60;;
17790;SDS011;9019;48.132;-1.210;2023-12-20T02:38:54;13.37;;;1.90;;
17790;SDS011;9019;48.132;-1.210;2023-12-20T02:41:21;8.73;;;1.83;;
17790;SDS011;9019;48.132;-1.210;2023-12-20T02:43:48;9.67;;;1.90;;
17790;SDS011;9019;48.132;-1.210;2023-12-20T02:46:15;9.67;;;2.03;;
17790;SDS011;9019;48.132;-1.210;2023-12-20T02:48:43;9.80;;;2.37;;
17790;SDS011;9019;48.132;-1.210;2023-12-20T02:51:12;10.07;;;2.33;;
17790;SDS011;9019;48.132;-1.210;2023-12-20T02:53:39;12.67;;;2.30;;
17790;SDS011;9019;48.132;-1.210;2023-12-20T02:56:08;11.77;;;1.90;;
17790;SDS011;9019;48.132;-1.210;2023-12-20T02:58:35;10.80;;;2.17;;
17790;SDS011;9019;48.132;-1.210;2023-12-20T03:01:02;8.80;;;2.20;;
17790;SDS011;9019;48.132;-1.210;2023-12-20T03:03:29;9.03;;;2.00;;
17790;SDS011;9019;48.132;-1.210;2023-12-20T03:05:56;6.40;;;2.17;;
17790;SDS011;9019;48.132;-1.210;2023-12-20T03:08:24;9.97;;;2.43;;
17790;SDS011;9019;48.132;-1.210;2023-12-20T03:10:51;9.27;;;2.50;;
17790;SDS011;9019;48.132;-1.210;2023-12-20T03:13:20;7.93;;;2.60;;
17790;SDS011;9019;48.132;-1.210;2023-12-20T03:15:47;10.70;;;2.50;;
17790;SDS011;9019;48.132;-1.210;2023-12-20T03:18:14;13.00;;;2.73;;
17790;SDS011;9019;48.132;-1.210;2023-12-20T03:20:41;12.00;;;2.63;;
17790;SDS011;9019;48.132;-1.210;2023-12-20T03:23:08;15.13;;;3.27;;
17790;SDS011;9019;48.132;-1.210;2023-12-20T03:25:35;10.90;;;3.00;;
17790;SDS011;9019;48.132;-1.210;2023-12-20T03:28:03;10.93;;;3.50;;
17790;SDS011;9019;48.132;-1.210;2023-12-20T03:30:32;8.73;;;3.53;;
17790;SDS011;9019;48.132;-1.210;2023-12-20T03:32:59;9.60;;;3.20;;
17790;SDS011;9019;48.132;-1.210;2023-12-20T03:35:26;12.93;;;3.03;;
17790;SDS011;9019;48.132;-1.210;2023-12-20T03:37:53;11.13;;;3.37;;
17790;SDS011;9019;48.132;-1.210;2023-12-20T03:40:22;9.17;;;3.30;;
17790;SDS011;9019;48.132;-1.210;2023-12-20T03:42:49;11.53;;;2.80;;
17790;SDS011;9019;48.132;-1.210;2023-12-20T03:45:16;9.00;;;2.60;;
17790;SDS011;9019;48.132;-1.210;2023-12-20T03:47:44;8.40;;;2.40;;
17790;SDS011;9019;48.132;-1.210;2023-12-20T03:50:12;7.70;;;2.30;;
17790;SDS011;9019;48.132;-1.210;2023-12-20T03:52:39;8.63;;;2.00;;
17790;SDS011;9019;48.132;-1.210;2023-12-20T03:55:06;9.57;;;2.60;;
17790;SDS011;9019;48.132;-1.210;2023-12-20T03:57:33;9.93;;;3.17;;
17790;SDS011;9019;48.132;-1.210;2023-12-20T04:00:01;10.90;;;3.60;;
17790;SDS011;9019;48.132;-1.210;2023-12-20T04:02:28;9.70;;;2.90;;
17790;SDS011;9019;48.132;-1.210;2023-12-20T04:04:56;9.63;;;2.70;;
17790;SDS011;9019;48.132;-1.210;2023-12-20T04:07:23;9.63;;;2.20;;
17790;SDS011;9019;48.132;-1.210;2023-12-20T04:09:51;9.30;;;2.37;;
17790;SDS011;9019;48.132;-1.210;2023-12-20T04:12:18;13.47;;;2.60;;
17790;SDS011;9019;48.132;-1.210;2023-12-20T04:14:45;8.83;;;2.70;;
17790;SDS011;9019;48.132;-1.210;2023-12-20T04:17:12;13.43;;;2.83;;
17790;SDS011;9019;48.132;-1.210;2023-12-20T04:19:40;7.87;;;2.63;;
17790;SDS011;9019;48.132;-1.210;2023-12-20T04:22:09;10.20;;;2.63;;
17790;SDS011;9019;48.132;-1.210;2023-12-20T04:24:36;8.17;;;2.70;;
17790;SDS011;9019;48.132;-1.210;2023-12-20T04:27:03;6.63;;;2.17;;
17790;SDS011;9019;48.132;-1.210;2023-12-20T04:29:31;9.00;;;2.80;;
17790;SDS011;9019;48.132;-1.210;2023-12-20T04:31:58;7.70;;;2.30;;
17790;SDS011;9019;48.132;-1.210;2023-12-20T04:34:26;10.70;;;2.50;;
17790;SDS011;9019;48.132;-1.210;2023-12-20T04:36:53;8.13;;;2.50;;
17790;SDS011;9019;48.132;-1.210;2023-12-20T04:39:21;7.67;;;2.10;;
17790;SDS011;9019;48.132;-1.210;2023-12-20T04:41:48;13.53;;;3.10;;
17790;SDS011;9019;48.132;-1.210;2023-12-20T04:44:16;10.20;;;2.47;;
17790;SDS011;9019;48.132;-1.210;2023-12-20T04:46:43;7.37;;;2.47;;
17790;SDS011;9019;48.132;-1.210;2023-12-20T04:49:10;11.27;;;3.13;;
17790;SDS011;9019;48.132;-1.210;2023-12-20T04:51:37;11.60;;;3.60;;
17790;SDS011;9019;48.132;-1.210;2023-12-20T04:54:05;13.57;;;4.20;;
17790;SDS011;9019;48.132;-1.210;2023-12-20T04:56:33;13.90;;;3.90;;
17790;SDS011;9019;48.132;-1.210;2023-12-20T04:59:00;11.20;;;3.20;;
17790;SDS011;9019;48.132;-1.210;2023-12-20T05:01:28;7.60;;;2.77;;
17790;SDS011;9019;48.132;-1.210;2023-12-20T05:03:55;7.87;;;2.50;;
17790;SDS011;9019;48.132;-1.210;2023-12-20T05:06:23;8.53;;;2.20;;
17790;SDS011;9019;48.132;-1.210;2023-12-20T05:08:50;9.83;;;2.33;;
17790;SDS011;9019;48.132;-1.210;2023-12-20T05:11:18;10.20;;;2.53;;
17790;SDS011;9019;48.132;-1.210;2023-12-20T05:13:46;11.20;;;2.63;;
17790;SDS011;9019;48.132;-1.210;2023-12-20T05:16:14;10.93;;;3.00;;
17790;SDS011;9019;48.132;-1.210;2023-12-20T05:18:42;10.80;;;3.70;;
17790;SDS011;9019;48.132;-1.210;2023-12-20T05:21:10;13.03;;;4.00;;
17790;SDS011;9019;48.132;-1.210;2023-12-20T05:23:37;13.87;;;4.80;;
17790;SDS011;9019;48.132;-1.210;2023-12-20T05:26:04;11.40;;;4.40;;
17790;SDS011;9019;48.132;-1.210;2023-12-20T05:28:31;9.23;;;3.03;;
17790;SDS011;9019;48.132;-1.210;2023-12-20T05:31:00;7.40;;;2.40;;
17790;SDS011;9019;48.132;-1.210;2023-12-20T05:33:27;12.13;;;2.83;;
17790;SDS011;9019;48.132;-1.210;2023-12-20T05:35:54;10.63;;;2.83;;
17790;SDS011;9019;48.132;-1.210;2023-12-20T05:38:21;10.33;;;2.77;;
17790;SDS011;9019;48.132;-1.210;2023-12-20T05:40:49;8.47;;;2.47;;
17790;SDS011;9019;48.132;-1.210;2023-12-20T05:43:16;10.23;;;2.70;;
17790;SDS011;9019;48.132;-1.210;2023-12-20T05:45:43;12.50;;;2.83;;
17790;SDS011;9019;48.132;-1.210;2023-12-20T05:48:11;8.23;;;3.17;;
17790;SDS011;9019;48.132;-1.210;2023-12-20T05:50:39;11.57;;;3.40;;
17790;SDS011;9019;48.132;-1.210;2023-12-20T05:53:06;8.13;;;3.00;;
17790;SDS011;9019;48.132;-1.210;2023-12-20T05:55:33;12.90;;;3.13;;
17790;SDS011;9019;48.132;-1.210;2023-12-20T05:58:00;9.17;;;3.43;;
17790;SDS011;9019;48.132;-1.210;2023-12-20T06:00:28;14.30;;;4.20;;
17790;SDS011;9019;48.132;-1.210;2023-12-20T06:02:55;9.40;;;3.97;;
17790;SDS011;9019;48.132;-1.210;2023-12-20T06:05:23;9.03;;;3.53;;
17790;SDS011;9019;48.132;-1.210;2023-12-20T06:07:51;10.97;;;3.70;;
17790;SDS011;9019;48.132;-1.210;2023-12-20T06:10:18;10.33;;;3.87;;
17790;SDS011;9019;48.132;-1.210;2023-12-20T06:12:45;11.77;;;4.07;;
17790;SDS011;9019;48.132;-1.210;2023-12-20T06:15:15;10.23;;;3.80;;
17790;SDS011;9019;48.132;-1.210;2023-12-20T06:17:42;6.73;;;3.90;;
17790;SDS011;9019;48.132;-1.210;2023-12-20T06:20:10;15.67;;;4.50;;
17790;SDS011;9019;48.132;-1.210;2023-12-20T06:22:39;12.00;;;4.13;;
17790;SDS011;9019;48.132;-1.210;2023-12-20T06:25:06;9.13;;;3.27;;
17790;SDS011;9019;48.132;-1.210;2023-12-20T06:27:34;10.13;;;3.17;;
17790;SDS011;9019;48.132;-1.210;2023-12-20T06:30:01;9.33;;;2.60;;
17790;SDS011;9019;48.132;-1.210;2023-12-20T06:32:28;10.47;;;1.90;;
17790;SDS011;9019;48.132;-1.210;2023-12-20T06:34:55;11.30;;;2.20;;
17790;SDS011;9019;48.132;-1.210;2023-12-20T06:37:22;8.13;;;2.70;;
17790;SDS011;9019;48.132;-1.210;2023-12-20T06:39:51;12.43;;;2.70;;
17790;SDS011;9019;48.132;-1.210;2023-12-20T06:42:18;5.50;;;2.30;;
17790;SDS011;9019;48.132;-1.210;2023-12-20T06:44:45;6.47;;;2.03;;
17790;SDS011;9019;48.132;-1.210;2023-12-20T06:47:12;8.30;;;1.93;;
17790;SDS011;9019;48.132;-1.210;2023-12-20T06:49:40;7.10;;;1.73;;
17790;SDS011;9019;48.132;-1.210;2023-12-20T06:52:07;11.30;;;2.23;;
17790;SDS011;9019;48.132;-1.210;2023-12-20T06:54:34;9.37;;;1.70;;
17790;SDS011;9019;48.132;-1.210;2023-12-20T06:57:03;7.33;;;1.53;;
17790;SDS011;9019;48.132;-1.210;2023-12-20T06:59:30;8.37;;;1.90;;
17790;SDS011;9019;48.132;-1.210;2023-12-20T07:01:57;11.73;;;1.83;;
17790;SDS011;9019;48.132;-1.210;2023-12-20T07:04:25;8.77;;;1.80;;
17790;SDS011;9019;48.132;-1.210;2023-12-20T07:06:52;7.43;;;1.90;;
17790;SDS011;9019;48.132;-1.210;2023-12-20T07:09:22;10.13;;;1.80;;
17790;SDS011;9019;48.132;-1.210;2023-12-20T07:11:49;11.60;;;2.53;;
17790;SDS011;9019;48.132;-1.210;2023-12-20T07:14:18;10.23;;;3.47;;
17790;SDS011;9019;48.132;-1.210;2023-12-20T07:16:45;11.27;;;3.80;;
17790;SDS011;9019;48.132;-1.210;2023-12-20T07:19:12;13.47;;;2.90;;
17790;SDS011;9019;48.132;-1.210;2023-12-20T07:21:39;10.60;;;2.90;;
17790;SDS011;9019;48.132;-1.210;2023-12-20T07:24:07;11.00;;;3.63;;
17790;SDS011;9019;48.132;-1.210;2023-12-20T07:26:34;11.30;;;3.60;;
17790;SDS011;9019;48.132;-1.210;2023-12-20T07:29:02;12.30;;;3.10;;
17790;SDS011;9019;48.132;-1.210;2023-12-20T07:31:31;17.20;;;3.17;;
17790;SDS011;9019;48.132;-1.210;2023-12-20T07:33:59;12.87;;;3.10;;
17790;SDS011;9019;48.132;-1.210;2023-12-20T07:36:27;11.57;;;2.97;;
17790;SDS011;9019;48.132;-1.210;2023-12-20T07:38:54;11.13;;;2.83;;
17790;SDS011;9019;48.132;-1.210;2023-12-20T07:41:21;8.87;;;3.10;;
17790;SDS011;9019;48.132;-1.210;2023-12-20T07:43:48;15.93;;;3.00;;
17790;SDS011;9019;48.132;-1.210;2023-12-20T07:46:16;13.37;;;3.40;;
17790;SDS011;9019;48.132;-1.210;2023-12-20T07:48:49;10.73;;;2.80;;
17790;SDS011;9019;48.132;-1.210;2023-12-20T07:51:16;11.10;;;2.87;;
17790;SDS011;9019;48.132;-1.210;2023-12-20T07:53:43;16.87;;;3.00;;
17790;SDS011;9019;48.132;-1.210;2023-12-20T07:56:13;14.57;;;3.50;;
17790;SDS011;9019;48.132;-1.210;2023-12-20T07:58:41;12.60;;;3.50;;
17790;SDS011;9019;48.132;-1.210;2023-12-20T08:01:09;15.53;;;4.00;;
17790;SDS011;9019;48.132;-1.210;2023-12-20T08:03:36;15.40;;;4.97;;
17790;SDS011;9019;48.132;-1.210;2023-12-20T08:06:05;15.77;;;5.20;;
17790;SDS011;9019;48.132;-1.210;2023-12-20T08:08:32;15.83;;;5.13;;
17790;SDS011;9019;48.132;-1.210;2023-12-20T08:10:59;11.73;;;4.13;;
17790;SDS011;9019;48.132;-1.210;2023-12-20T08:13:27;11.93;;;3.60;;
17790;SDS011;9019;48.132;-1.210;2023-12-20T08:15:55;20.40;;;3.60;;
17790;SDS011;9019;48.132;-1.210;2023-12-20T08:18:22;11.53;;;3.23;;
17790;SDS011;9019;48.132;-1.210;2023-12-20T08:20:49;11.97;;;3.70;;
17790;SDS011;9019;48.132;-1.210;2023-12-20T08:23:19;12.87;;;4.57;;
17790;SDS011;9019;48.132;-1.210;2023-12-20T08:25:46;13.93;;;4.93;;
17790;SDS011;9019;48.132;-1.210;2023-12-20T08:28:14;14.03;;;5.30;;
17790;SDS011;9019;48.132;-1.210;2023-12-20T08:30:41;15.57;;;4.53;;
17790;SDS011;9019;48.132;-1.210;2023-12-20T08:33:08;8.87;;;4.03;;
17790;SDS011;9019;48.132;-1.210;2023-12-20T08:35:37;17.23;;;4.67;;
17790;SDS011;9019;48.132;-1.210;2023-12-20T08:38:05;13.47;;;4.93;;
17790;SDS011;9019;48.132;-1.210;2023-12-20T08:40:33;14.27;;;6.30;;
17790;SDS011;9019;48.132;-1.210;2023-12-20T08:43:00;16.67;;;6.23;;
17790;SDS011;9019;48.132;-1.210;2023-12-20T08:45:28;12.53;;;5.80;;
17790;SDS011;9019;48.132;-1.210;2023-12-20T08:47:55;16.73;;;6.93;;
17790;SDS011;9019;48.132;-1.210;2023-12-20T08:50:22;11.70;;;5.13;;
17790;SDS011;9019;48.132;-1.210;2023-12-20T08:52:50;14.13;;;6.20;;
17790;SDS011;9019;48.132;-1.210;2023-12-20T08:55:17;17.00;;;6.67;;
17790;SDS011;9019;48.132;-1.210;2023-12-20T08:57:46;12.23;;;5.83;;
17790;SDS011;9019;48.132;-1.210;2023-12-20T09:00:14;14.70;;;5.40;;
17790;SDS011;9019;48.132;-1.210;2023-12-20T09:02:41;11.33;;;4.63;;
17790;SDS011;9019;48.132;-1.210;2023-12-20T09:05:08;12.97;;;4.80;;
17790;SDS011;9019;48.132;-1.210;2023-12-20T09:07:35;9.37;;;4.10;;
17790;SDS011;9019;48.132;-1.210;2023-12-20T09:10:03;13.27;;;4.13;;
17790;SDS011;9019;48.132;-1.210;2023-12-20T09:12:30;8.80;;;3.70;;
17790;SDS011;9019;48.132;-1.210;2023-12-20T09:14:59;7.70;;;3.53;;
17790;SDS011;9019;48.132;-1.210;2023-12-20T09:17:27;11.40;;;4.20;;
17790;SDS011;9019;48.132;-1.210;2023-12-20T09:19:55;8.20;;;3.57;;
17790;SDS011;9019;48.132;-1.210;2023-12-20T09:22:22;9.53;;;3.80;;
17790;SDS011;9019;48.132;-1.210;2023-12-20T09:24:49;11.63;;;3.47;;
17790;SDS011;9019;48.132;-1.210;2023-12-20T09:27:16;8.30;;;3.17;;
17790;SDS011;9019;48.132;-1.210;2023-12-20T09:29:43;8.57;;;3.03;;
17790;SDS011;9019;48.132;-1.210;2023-12-20T09:32:12;9.03;;;3.90;;
17790;SDS011;9019;48.132;-1.210;2023-12-20T09:34:39;12.97;;;4.70;;
17790;SDS011;9019;48.132;-1.210;2023-12-20T09:37:06;13.07;;;3.40;;
17790;SDS011;9019;48.132;-1.210;2023-12-20T09:39:34;8.00;;;2.83;;
17790;SDS011;9019;48.132;-1.210;2023-12-20T09:42:01;8.87;;;2.67;;
17790;SDS011;9019;48.132;-1.210;2023-12-20T09:44:29;10.30;;;2.97;;
17790;SDS011;9019;48.132;-1.210;2023-12-20T09:46:58;6.80;;;2.73;;
17790;SDS011;9019;48.132;-1.210;2023-12-20T09:49:27;9.07;;;2.20;;
17790;SDS011;9019;48.132;-1.210;2023-12-20T09:51:54;8.87;;;2.70;;
17790;SDS011;9019;48.132;-1.210;2023-12-20T09:54:22;7.33;;;2.80;;
17790;SDS011;9019;48.132;-1.210;2023-12-20T09:56:49;10.00;;;2.90;;
17790;SDS011;9019;48.132;-1.210;2023-12-20T09:59:17;7.50;;;2.90;;
17790;SDS011;9019;48.132;-1.210;2023-12-20T10:01:44;7.83;;;2.60;;
17790;SDS011;9019;48.132;-1.210;2023-12-20T10:04:12;8.20;;;2.70;;
17790;SDS011;9019;48.132;-1.210;2023-12-20T10:06:41;8.50;;;3.00;;
17790;SDS011;9019;48.132;-1.210;2023-12-20T10:09:09;11.10;;;3.40;;
17790;SDS011;9019;48.132;-1.210;2023-12-20T10:11:36;9.03;;;3.17;;
17790;SDS011;9019;48.132;-1.210;2023-12-20T10:14:03;9.93;;;3.20;;
17790;SDS011;9019;48.132;-1.210;2023-12-20T10:16:31;9.07;;;2.80;;
17790;SDS011;9019;48.132;-1.210;2023-12-20T10:18:59;11.70;;;2.77;;
17790;SDS011;9019;48.132;-1.210;2023-12-20T10:21:27;7.13;;;2.70;;
17790;SDS011;9019;48.132;-1.210;2023-12-20T10:23:55;8.30;;;2.40;;
17790;SDS011;9019;48.132;-1.210;2023-12-20T10:26:23;8.60;;;2.83;;
17790;SDS011;9019;48.132;-1.210;2023-12-20T10:28:51;8.23;;;2.17;;
17790;SDS011;9019;48.132;-1.210;2023-12-20T10:31:25;8.13;;;2.30;;
17790;SDS011;9019;48.132;-1.210;2023-12-20T10:33:52;8.83;;;3.27;;
17790;SDS011;9019;48.132;-1.210;2023-12-20T10:36:20;11.77;;;3.23;;
17790;SDS011;9019;48.132;-1.210;2023-12-20T10:38:47;9.20;;;2.90;;
17790;SDS011;9019;48.132;-1.210;2023-12-20T10:41:17;11.33;;;2.90;;
17790;SDS011;9019;48.132;-1.210;2023-12-20T10:43:47;11.37;;;3.17;;
17790;SDS011;9019;48.132;-1.210;2023-12-20T10:46:15;11.33;;;3.50;;
17790;SDS011;9019;48.132;-1.210;2023-12-20T10:48:43;10.43;;;2.80;;
17790;SDS011;9019;48.132;-1.210;2023-12-20T10:51:11;13.97;;;3.40;;
17790;SDS011;9019;48.132;-1.210;2023-12-20T10:53:38;11.43;;;2.80;;
17790;SDS011;9019;48.132;-1.210;2023-12-20T10:56:06;10.87;;;3.03;;
17790;SDS011;9019;48.132;-1.210;2023-12-20T10:58:36;6.80;;;2.53;;
17790;SDS011;9019;48.132;-1.210;2023-12-20T11:01:04;12.77;;;3.20;;
17790;SDS011;9019;48.132;-1.210;2023-12-20T11:03:32;15.00;;;2.67;;
17790;SDS011;9019;48.132;-1.210;2023-12-20T11:06:02;10.27;;;2.13;;
17790;SDS011;9019;48.132;-1.210;2023-12-20T11:08:33;9.43;;;2.27;;
17790;SDS011;9019;48.132;-1.210;2023-12-20T11:11:03;11.38;;;2.30;;
17790;SDS011;9019;48.132;-1.210;2023-12-20T11:13:32;9.75;;;2.30;;
17790;SDS011;9019;48.132;-1.210;2023-12-20T11:16:03;12.10;;;2.47;;
17790;SDS011;9019;48.132;-1.210;2023-12-20T11:18:30;8.77;;;3.08;;
17790;SDS011;9019;48.132;-1.210;2023-12-20T11:21:00;9.98;;;2.65;;
17790;SDS011;9019;48.132;-1.210;2023-12-20T11:23:29;10.80;;;2.90;;
17790;SDS011;9019;48.132;-1.210;2023-12-20T11:25:58;12.20;;;2.75;;
17790;SDS011;9019;48.132;-1.210;2023-12-20T11:28:26;12.27;;;3.00;;
17790;SDS011;9019;48.132;-1.210;2023-12-20T11:30:55;10.88;;;2.97;;
17790;SDS011;9019;48.132;-1.210;2023-12-20T11:33:26;9.05;;;2.83;;
17790;SDS011;9019;48.132;-1.210;2023-12-20T11:35:56;8.77;;;2.88;;
17790;SDS011;9019;48.132;-1.210;2023-12-20T11:38:24;8.52;;;3.05;;
17790;SDS011;9019;48.132;-1.210;2023-12-20T11:40:53;9.82;;;2.50;;
17790;SDS011;9019;48.132;-1.210;2023-12-20T11:43:29;10.00;;;2.65;;
17790;SDS011;9019;48.132;-1.210;2023-12-20T11:46:02;9.13;;;2.25;;
17790;SDS011;9019;48.132;-1.210;2023-12-20T11:48:31;11.05;;;2.75;;
17790;SDS011;9019;48.132;-1.210;2023-12-20T11:50:58;15.10;;;2.78;;
17790;SDS011;9019;48.132;-1.210;2023-12-20T11:53:26;10.68;;;2.63;;
17790;SDS011;9019;48.132;-1.210;2023-12-20T11:55:53;8.00;;;2.58;;
17790;SDS011;9019;48.132;-1.210;2023-12-20T11:58:21;13.55;;;2.42;;
17790;SDS011;9019;48.132;-1.210;2023-12-20T12:00:49;11.80;;;2.38;;
17790;SDS011;9019;48.132;-1.210;2023-12-20T12:03:16;7.03;;;2.20;;
17790;SDS011;9019;48.132;-1.210;2023-12-20T12:05:47;9.63;;;2.17;;
17790;SDS011;9019;48.132;-1.210;2023-12-20T12:08:14;9.60;;;2.90;;
17790;SDS011;9019;48.132;-1.210;2023-12-20T12:10:42;7.10;;;2.38;;
17790;SDS011;9019;48.132;-1.210;2023-12-20T12:13:09;6.78;;;1.85;;
17790;SDS011;9019;48.132;-1.210;2023-12-20T12:15:36;9.23;;;2.15;;
17790;SDS011;9019;48.132;-1.210;2023-12-20T12:18:04;6.47;;;1.80;;
17790;SDS011;9019;48.132;-1.210;2023-12-20T12:20:31;11.45;;;2.30;;
17790;SDS011;9019;48.132;-1.210;2023-12-20T12:23:00;9.25;;;2.47;;
17790;SDS011;9019;48.132;-1.210;2023-12-20T12:25:28;9.55;;;1.75;;
17790;SDS011;9019;48.132;-1.210;2023-12-20T12:27:56;6.97;;;2.25;;
17790;SDS011;9019;48.132;-1.210;2023-12-20T12:30:23;7.68;;;2.15;;
17790;SDS011;9019;48.132;-1.210;2023-12-20T12:32:50;8.13;;;2.05;;
17790;SDS011;9019;48.132;-1.210;2023-12-20T12:35:18;7.65;;;1.90;;
17790;SDS011;9019;48.132;-1.210;2023-12-20T12:37:45;7.60;;;2.00;;
17790;SDS011;9019;48.132;-1.210;2023-12-20T12:40:15;7.85;;;1.52;;
17790;SDS011;9019;48.132;-1.210;2023-12-20T12:42:42;7.40;;;1.90;;
17790;SDS011;9019;48.132;-1.210;2023-12-20T12:45:10;8.63;;;1.80;;
17790;SDS011;9019;48.132;-1.210;2023-12-20T12:47:37;6.53;;;1.73;;
17790;SDS011;9019;48.132;-1.210;2023-12-20T12:50:05;7.30;;;1.60;;
17790;SDS011;9019;48.132;-1.210;2023-12-20T12:52:32;10.40;;;1.60;;
17790;SDS011;9019;48.132;-1.210;2023-12-20T12:55:00;12.18;;;2.45;;
17790;SDS011;9019;48.132;-1.210;2023-12-20T12:57:29;7.05;;;1.40;;
17790;SDS011;9019;48.132;-1.210;2023-12-20T12:59:57;7.68;;;1.63;;
17790;SDS011;9019;48.132;-1.210;2023-12-20T13:02:24;11.00;;;1.73;;
17790;SDS011;9019;48.132;-1.210;2023-12-20T13:04:51;10.85;;;1.67;;
17790;SDS011;9019;48.132;-1.210;2023-12-20T13:07:19;6.80;;;1.77;;
17790;SDS011;9019;48.132;-1.210;2023-12-20T13:09:46;9.20;;;1.75;;
17790;SDS011;9019;48.132;-1.210;2023-12-20T13:12:13;6.95;;;1.77;;
17790;SDS011;9019;48.132;-1.210;2023-12-20T13:14:41;6.63;;;1.70;;
17790;SDS011;9019;48.132;-1.210;2023-12-20T13:17:09;9.63;;;1.97;;
17790;SDS011;9019;48.132;-1.210;2023-12-20T13:19:36;10.07;;;2.17;;
17790;SDS011;9019;48.132;-1.210;2023-12-20T13:22:03;9.40;;;2.00;;
17790;SDS011;9019;48.132;-1.210;2023-12-20T13:24:31;9.87;;;2.23;;
17790;SDS011;9019;48.132;-1.210;2023-12-20T13:26:58;5.73;;;1.47;;
17790;SDS011;9019;48.132;-1.210;2023-12-20T13:29:25;7.87;;;1.50;;
17790;SDS011;9019;48.132;-1.210;2023-12-20T13:31:54;10.87;;;1.87;;
17790;SDS011;9019;48.132;-1.210;2023-12-20T13:34:22;7.53;;;1.77;;
17790;SDS011;9019;48.132;-1.210;2023-12-20T13:36:49;9.73;;;2.20;;
17790;SDS011;9019;48.132;-1.210;2023-12-20T13:39:16;7.07;;;2.03;;
17790;SDS011;9019;48.132;-1.210;2023-12-20T13:41:44;12.07;;;3.50;;
17790;SDS011;9019;48.132;-1.210;2023-12-20T13:44:11;12.00;;;4.23;;
17790;SDS011;9019;48.132;-1.210;2023-12-20T13:46:38;10.10;;;4.10;;
17790;SDS011;9019;48.132;-1.210;2023-12-20T13:49:07;9.65;;;3.38;;
17790;SDS011;9019;48.132;-1.210;2023-12-20T13:51:34;6.97;;;1.60;;
17790;SDS011;9019;48.132;-1.210;2023-12-20T13:54:01;5.63;;;1.60;;
17790;SDS011;9019;48.132;-1.210;2023-12-20T13:56:28;8.00;;;1.90;;
17790;SDS011;9019;48.132;-1.210;2023-12-20T13:58:55;10.40;;;3.23;;
17790;SDS011;9019;48.132;-1.210;2023-12-20T14:01:23;15.67;;;4.37;;
17790;SDS011;9019;48.132;-1.210;2023-12-20T14:03:51;14.87;;;5.83;;
17790;SDS011;9019;48.132;-1.210;2023-12-20T14:06:20;12.80;;;4.67;;
17790;SDS011;9019;48.132;-1.210;2023-12-20T14:08:47;10.27;;;4.03;;
17790;SDS011;9019;48.132;-1.210;2023-12-20T14:11:14;8.27;;;3.50;;
17790;SDS011;9019;48.132;-1.210;2023-12-20T14:13:41;10.27;;;3.27;;
17790;SDS011;9019;48.132;-1.210;2023-12-20T14:16:08;8.57;;;2.87;;
17790;SDS011;9019;48.132;-1.210;2023-12-20T14:18:36;9.70;;;2.50;;
17790;SDS011;9019;48.132;-1.210;2023-12-20T14:21:04;8.87;;;2.33;;
17790;SDS011;9019;48.132;-1.210;2023-12-20T14:23:33;10.23;;;2.37;;
17790;SDS011;9019;48.132;-1.210;2023-12-20T14:26:01;8.73;;;2.80;;
17790;SDS011;9019;48.132;-1.210;2023-12-20T14:28:28;6.67;;;2.43;;
17790;SDS011;9019;48.132;-1.210;2023-12-20T14:30:55;8.53;;;2.40;;
17790;SDS011;9019;48.132;-1.210;2023-12-20T14:33:22;7.83;;;2.30;;
17790;SDS011;9019;48.132;-1.210;2023-12-20T14:35:50;9.93;;;2.40;;
17790;SDS011;9019;48.132;-1.210;2023-12-20T14:38:18;12.80;;;2.57;;
17790;SDS011;9019;48.132;-1.210;2023-12-20T14:40:46;8.87;;;2.37;;
17790;SDS011;9019;48.132;-1.210;2023-12-20T14:43:14;9.73;;;1.67;;